Offerle, Kansas
Current Conditions -  °F | °C
As of 12:02 PM on Tuesday 21 Oct 2014 (Local Time) from KDDC Reporting Station
Haze Haze  
Wind Chill: 65°   Ceiling: Unl
Heat Index: 65°   Visibility: 3mi
Dew Point: 58°   Wind: 9mph
Humidity: 78%   Direction: 200°SSW
Pressure: 30.09"   Gusts: NA
Location:  37.89°N, 99.56°W
Report Text: KDDC 211702Z AUTO 20008KT 3SM HZ SCT003 18/14 A3009 RMK AO2 T01830144
Loading
Personal Weather Stations






























Interactive Weather Map
Tropical Storm Tracking
New forecast layout! Learn more

10-Day Weather Forecast

Advertisements
Track Severe Weather on mobile